map of KEF home
KEF - Airport
Location
City:  Reykjavík, Iceland
Name:Keflavík
ICAO:BIKF
IATA:KEF

Details
Type:Airport (Aerodrome, Airfield)
Latitude:63°59'06"N (63.985000)
Longitude:22°36'20"W (-22.605555)
Elevation:171 ft (52 m)
Variation:13.59°W (WMM2015v2 magnetic declination)
0.32° annual change
Runways:2
Longest:10056 × 197 ft (3065 × 60 m), paved

Time
Time Zone:UTC+0
Local Time:

Weather
METAR:BIKF 041400Z 07007KT 0200 R01/0300D FZFG FEW001 SCT005 BKN160 M03/M04 Q1009
TAF:BIKF 041358Z 0415/0515 08008KT 9999 FEW020 TX04/0515Z TNM03/0415Z PROB30
TEMPO 0415/0417 2000 BCFG BKN003
BECMG 0418/0421 10020KT SCT025 BKN040
BECMG 0500/0503 10025G35KT SCT018 BKN025 OVC035
BECMG 0506/0509 09035G47KT
TEMPO 0511/0515 7000 RA BKN015 OVC025

Related Locations
Nearby:
Farthest:NZTB: 11672 mi / 18784 km
Terra Nova Bay [Mario Zucchelli Station], AQ

Find:

   beyond  
but within

Other Information
Maps:
NOTAMs:
Links:
Sources:

  
  • flag of Iceland
  • flag of Reykjavík
  

Sectional Chart

Flight Planning
at skyvector.com

Satellite Image

Google Maps Satellite view

 

Copyright © 2004-2019 Karl L. Swartz. All rights reserved.
The Great Circle Mapper name and logo are trademarks of the Great Circle Mapper.
All other trademarks mentioned herein belong to their respective owners.
Please see credits for attibutions and further copyright information.

  Follow gcmap on Facebook Follow gcmap on Twitter GCmap on LinkedIn

hCard Microformat

Geo Microformat